createdAt,value
2018-07-07T00:01:06.731Z,22.93
2018-07-07T00:03:35.276Z,22.70
2018-07-07T00:06:03.798Z,20.73
2018-07-07T00:08:32.244Z,24.13
2018-07-07T00:11:00.725Z,21.43
2018-07-07T00:13:29.326Z,29.60
2018-07-07T00:15:57.780Z,22.93
2018-07-07T00:18:26.230Z,20.40
2018-07-07T00:20:54.780Z,22.30
2018-07-07T00:23:23.219Z,21.63
2018-07-07T00:25:51.643Z,22.00
2018-07-07T00:28:20.317Z,22.03
2018-07-07T00:30:48.802Z,26.30
2018-07-07T00:33:17.285Z,25.33
2018-07-07T00:35:50.419Z,26.70
2018-07-07T00:38:19.141Z,21.20
2018-07-07T00:40:47.596Z,21.27
2018-07-07T00:43:16.087Z,23.07
2018-07-07T00:45:44.526Z,23.03
2018-07-07T00:48:13.048Z,21.70
2018-07-07T00:50:41.717Z,24.23
2018-07-07T00:53:10.172Z,25.87
2018-07-07T00:55:38.791Z,24.13
2018-07-07T00:58:07.300Z,24.10
2018-07-07T01:00:45.960Z,20.83
2018-07-07T01:03:14.515Z,23.67
2018-07-07T01:05:45.406Z,24.53
2018-07-07T01:08:14.149Z,30.27
2018-07-07T01:10:43.053Z,25.20
2018-07-07T01:13:11.552Z,25.40
2018-07-07T01:15:40.835Z,22.77
2018-07-07T01:18:09.929Z,24.73
2018-07-07T01:20:38.824Z,22.70
2018-07-07T01:23:07.516Z,19.90
2018-07-07T01:25:36.041Z,20.77
2018-07-07T01:28:04.566Z,22.87
2018-07-07T01:30:33.014Z,21.23
2018-07-07T01:33:01.777Z,22.10
2018-07-07T01:35:30.286Z,20.40
2018-07-07T01:37:58.695Z,27.23
2018-07-07T01:40:27.123Z,19.93
2018-07-07T01:42:55.406Z,23.87
2018-07-07T01:45:23.969Z,22.70
2018-07-07T01:47:52.423Z,26.63
2018-07-07T01:50:21.011Z,25.43
2018-07-07T01:52:49.474Z,24.20
2018-07-07T01:55:17.912Z,22.00
2018-07-07T01:57:46.373Z,26.40
2018-07-07T02:00:15.108Z,27.87
2018-07-07T02:02:43.648Z,30.23
2018-07-07T02:05:12.178Z,25.80
2018-07-07T02:07:40.967Z,26.93
2018-07-07T02:10:09.631Z,24.40
2018-07-07T02:12:38.057Z,30.20
2018-07-07T02:15:06.764Z,26.63
2018-07-07T02:17:35.218Z,29.30
2018-07-07T02:20:03.816Z,25.83
2018-07-07T02:22:32.285Z,26.43
2018-07-07T02:25:00.830Z,25.13
2018-07-07T02:27:29.249Z,24.47
2018-07-07T02:29:57.760Z,23.87
2018-07-07T02:32:26.388Z,26.00
2018-07-07T02:34:54.823Z,24.00
2018-07-07T02:37:23.584Z,25.27
2018-07-07T02:39:52.441Z,27.47
2018-07-07T02:42:20.915Z,28.23
2018-07-07T02:44:49.354Z,29.13
2018-07-07T02:47:17.991Z,25.37
2018-07-07T02:49:46.442Z,31.97
2018-07-07T02:52:15.052Z,26.77
2018-07-07T02:54:43.586Z,27.83
2018-07-07T02:57:12.033Z,30.13
2018-07-07T02:59:40.395Z,28.73
2018-07-07T03:02:08.795Z,28.97
2018-07-07T03:04:37.517Z,36.43
2018-07-07T03:07:06.060Z,39.73
2018-07-07T03:09:34.181Z,29.47
2018-07-07T03:12:02.706Z,32.33
2018-07-07T03:14:31.312Z,27.73
2018-07-07T03:16:59.966Z,32.27
2018-07-07T03:19:28.514Z,27.80
2018-07-07T03:21:57.028Z,26.53
2018-07-07T03:24:25.632Z,30.13
2018-07-07T03:26:53.740Z,31.03
2018-07-07T03:29:22.250Z,29.80
2018-07-07T03:31:50.735Z,29.90
2018-07-07T03:34:19.288Z,27.37
2018-07-07T03:36:47.776Z,34.13
2018-07-07T03:39:16.289Z,30.83
2018-07-07T03:41:44.816Z,27.37
2018-07-07T03:44:13.463Z,27.80
2018-07-07T03:46:41.942Z,30.07
2018-07-07T03:49:10.371Z,24.60
2018-07-07T03:51:38.973Z,26.93
2018-07-07T03:54:08.690Z,26.27
2018-07-07T03:56:37.292Z,26.83
2018-07-07T03:59:05.704Z,23.83
2018-07-07T04:01:34.141Z,34.70
2018-07-07T04:04:02.692Z,23.67
2018-07-07T04:06:31.109Z,25.90
2018-07-07T04:08:59.638Z,24.50
2018-07-07T04:11:28.129Z,26.57
2018-07-07T04:13:56.620Z,26.60
2018-07-07T04:16:25.062Z,31.37
2018-07-07T04:18:53.597Z,26.80
2018-07-07T04:21:22.716Z,24.63
2018-07-07T04:23:51.156Z,24.93
2018-07-07T04:26:19.799Z,24.17
2018-07-07T04:28:48.286Z,22.20
2018-07-07T04:31:16.740Z,25.27
2018-07-07T04:33:45.326Z,25.27
2018-07-07T04:36:13.759Z,25.60
2018-07-07T04:38:42.291Z,21.50
2018-07-07T04:41:10.741Z,23.57
2018-07-07T04:43:39.260Z,26.30
2018-07-07T04:46:07.740Z,23.93
2018-07-07T04:48:36.358Z,29.00
2018-07-07T04:51:04.922Z,28.83
2018-07-07T04:53:33.412Z,23.93
2018-07-07T04:56:02.177Z,34.17
2018-07-07T04:58:30.713Z,26.97
2018-07-07T05:00:59.196Z,23.87
2018-07-07T05:03:27.678Z,23.47
2018-07-07T05:05:56.147Z,22.57
2018-07-07T05:08:24.889Z,23.93
2018-07-07T05:10:53.343Z,29.00
2018-07-07T05:13:21.830Z,22.30
2018-07-07T05:15:50.896Z,21.17
2018-07-07T05:18:19.551Z,20.03
2018-07-07T05:20:48.008Z,23.43
2018-07-07T05:23:16.508Z,24.10
2018-07-07T05:25:45.011Z,21.07
2018-07-07T05:28:13.441Z,22.67
2018-07-07T05:30:42.305Z,20.63
2018-07-07T05:33:10.759Z,20.30
2018-07-07T05:35:39.346Z,19.63
2018-07-07T05:38:07.978Z,18.80
2018-07-07T05:40:36.514Z,20.17
2018-07-07T05:43:05.875Z,21.57
2018-07-07T05:45:34.310Z,18.67
2018-07-07T05:48:02.935Z,19.30
2018-07-07T05:50:31.421Z,19.12
2018-07-07T05:53:00.053Z,24.35
2018-07-07T05:55:28.585Z,15.40
2018-07-07T05:57:57.252Z,18.67
2018-07-07T06:00:25.707Z,19.87
2018-07-07T06:02:55.508Z,16.57
2018-07-07T06:05:24.022Z,19.75
2018-07-07T06:07:52.877Z,28.52
2018-07-07T06:10:21.319Z,27.07
2018-07-07T06:12:49.784Z,16.40
2018-07-07T06:15:21.510Z,17.67
2018-07-07T06:17:49.951Z,16.12
2018-07-07T06:20:18.613Z,13.90
2018-07-07T06:22:47.116Z,11.85
2018-07-07T06:25:19.731Z,15.55
2018-07-07T06:27:49.839Z,17.32
2018-07-07T06:30:18.321Z,13.38
2018-07-07T06:32:46.868Z,13.43
2018-07-07T06:35:15.406Z,11.50
2018-07-07T06:37:44.286Z,11.35
2018-07-07T06:40:12.761Z,12.55
2018-07-07T06:42:41.289Z,18.82
2018-07-07T06:45:09.929Z,13.88
2018-07-07T06:47:39.273Z,12.45
2018-07-07T06:50:07.776Z,19.82
2018-07-07T06:52:37.075Z,9.25
2018-07-07T06:55:06.169Z,12.15
2018-07-07T06:57:34.781Z,14.95
2018-07-07T07:00:03.614Z,9.20
2018-07-07T07:02:32.030Z,12.53
2018-07-07T07:05:00.887Z,15.65
2018-07-07T07:07:29.337Z,11.97
2018-07-07T07:09:57.881Z,10.68
2018-07-07T07:12:26.728Z,10.60
2018-07-07T07:14:55.205Z,12.68
2018-07-07T07:17:23.675Z,13.62
2018-07-07T07:19:52.614Z,11.18
2018-07-07T07:22:21.022Z,12.55
2018-07-07T07:24:49.578Z,11.68
2018-07-07T07:27:18.280Z,24.18
2018-07-07T07:29:46.796Z,27.80
2018-07-07T07:32:15.234Z,13.93
2018-07-07T07:34:43.838Z,12.50
2018-07-07T07:37:12.458Z,10.95
2018-07-07T07:39:41.715Z,13.50
2018-07-07T07:42:10.367Z,12.37
2018-07-07T07:44:38.870Z,9.50
2018-07-07T07:47:07.532Z,17.27
2018-07-07T07:49:36.232Z,8.03
2018-07-07T07:52:04.997Z,15.32
2018-07-07T07:54:33.549Z,7.87
2018-07-07T07:57:02.036Z,10.05
2018-07-07T07:59:30.541Z,8.43
2018-07-07T08:01:58.991Z,10.25
2018-07-07T08:04:27.549Z,8.30
2018-07-07T08:06:56.093Z,15.28
2018-07-07T08:09:24.933Z,6.60
2018-07-07T08:11:53.718Z,13.08
2018-07-07T08:14:22.701Z,13.13
2018-07-07T08:16:51.251Z,5.62
2018-07-07T08:19:19.856Z,6.83
2018-07-07T08:21:48.314Z,6.75
2018-07-07T08:24:17.025Z,6.37
2018-07-07T08:26:45.804Z,7.62
2018-07-07T08:29:14.346Z,9.48
2018-07-07T08:31:42.569Z,10.72
2018-07-07T08:34:11.968Z,6.55
2018-07-07T08:36:40.485Z,6.25
2018-07-07T08:39:08.984Z,5.58
2018-07-07T08:41:38.365Z,6.15
2018-07-07T08:44:07.030Z,4.60
2018-07-07T08:46:42.155Z,7.55
2018-07-07T08:49:10.856Z,4.83
2018-07-07T08:51:39.319Z,4.55
2018-07-07T08:54:08.086Z,4.50
2018-07-07T08:56:36.544Z,4.60
2018-07-07T08:59:05.278Z,4.58
2018-07-07T09:01:33.852Z,6.83
2018-07-07T09:04:02.631Z,4.80
2018-07-07T09:06:31.431Z,4.75
2018-07-07T09:09:00.037Z,4.20
2018-07-07T09:11:28.564Z,4.35
2018-07-07T09:13:57.020Z,5.28
2018-07-07T09:16:25.556Z,4.87
2018-07-07T09:18:54.746Z,5.62
2018-07-07T09:21:23.418Z,5.15
2018-07-07T09:23:51.882Z,5.62
2018-07-07T09:26:20.320Z,5.10
2018-07-07T09:28:48.945Z,6.70
2018-07-07T09:31:17.382Z,4.97
2018-07-07T09:33:46.345Z,6.12
2018-07-07T09:36:14.790Z,7.40
2018-07-07T09:38:43.639Z,5.72
2018-07-07T09:41:12.198Z,6.10
2018-07-07T09:43:41.839Z,7.97
2018-07-07T09:46:11.069Z,6.53
2018-07-07T09:48:39.548Z,6.15
2018-07-07T09:51:08.256Z,6.78
2018-07-07T09:53:36.859Z,6.67
2018-07-07T09:56:05.885Z,6.05
2018-07-07T09:58:34.555Z,8.25
2018-07-07T10:01:03.234Z,8.80
2018-07-07T10:03:31.728Z,7.28
2018-07-07T10:06:00.461Z,8.55
2018-07-07T10:08:28.918Z,7.28
2018-07-07T10:10:57.472Z,6.65
2018-07-07T10:13:26.949Z,6.83
2018-07-07T10:15:55.615Z,8.68
2018-07-07T10:18:25.376Z,7.40
2018-07-07T10:20:54.424Z,4.25
2018-07-07T10:23:23.068Z,4.92
2018-07-07T10:25:51.631Z,6.37
2018-07-07T10:28:20.272Z,5.45
2018-07-07T10:30:48.810Z,3.50
2018-07-07T10:33:17.305Z,3.75
2018-07-07T10:35:45.995Z,4.95
2018-07-07T10:38:14.612Z,4.17
2018-07-07T10:40:43.038Z,4.78
2018-07-07T10:43:11.467Z,7.30
2018-07-07T10:45:40.780Z,4.85
2018-07-07T10:48:09.116Z,3.40
2018-07-07T10:50:37.800Z,3.17
2018-07-07T10:53:07.130Z,4.35
2018-07-07T10:55:35.551Z,3.15
2018-07-07T10:58:04.036Z,3.40
2018-07-07T11:00:32.541Z,9.58
2018-07-07T11:03:01.086Z,3.02
2018-07-07T11:05:29.613Z,3.42
2018-07-07T11:07:58.655Z,3.70
2018-07-07T11:10:27.316Z,3.50
2018-07-07T11:12:56.963Z,4.08
2018-07-07T11:15:25.530Z,5.60
2018-07-07T11:17:54.518Z,3.98
2018-07-07T11:20:23.186Z,7.70
2018-07-07T11:22:51.748Z,4.97
2018-07-07T11:25:20.245Z,3.67
2018-07-07T11:27:48.952Z,3.30
2018-07-07T11:30:17.460Z,4.47
2018-07-07T11:32:46.121Z,3.10
2018-07-07T11:35:14.829Z,3.77
2018-07-07T11:37:43.632Z,7.45
2018-07-07T11:40:13.175Z,4.28
2018-07-07T11:42:42.123Z,3.77
2018-07-07T11:45:11.643Z,3.70
2018-07-07T11:47:40.832Z,2.85
2018-07-07T11:50:09.607Z,3.30
2018-07-07T11:52:38.661Z,4.87
2018-07-07T11:55:07.481Z,6.10
2018-07-07T11:57:35.993Z,3.75
2018-07-07T12:00:05.031Z,5.65
2018-07-07T12:02:33.489Z,3.10
2018-07-07T12:05:01.967Z,5.50
2018-07-07T12:07:30.468Z,2.10
2018-07-07T12:09:58.885Z,3.77
2018-07-07T12:12:27.867Z,2.72
2018-07-07T12:14:57.322Z,2.40
2018-07-07T12:17:26.022Z,4.72
2018-07-07T12:19:54.540Z,2.80
2018-07-07T12:22:22.985Z,3.87
2018-07-07T12:24:51.637Z,5.17
2018-07-07T12:27:20.210Z,2.72
2018-07-07T12:29:48.993Z,3.12
2018-07-07T12:32:17.435Z,3.65
2018-07-07T12:34:46.201Z,2.90
2018-07-07T12:37:14.888Z,3.72
2018-07-07T12:39:43.520Z,2.67
2018-07-07T12:42:12.052Z,5.40
2018-07-07T12:44:41.536Z,2.15
2018-07-07T12:47:10.076Z,2.83
2018-07-07T12:49:38.713Z,3.35
2018-07-07T12:52:07.446Z,2.58
2018-07-07T12:54:36.000Z,3.83
2018-07-07T12:57:04.524Z,5.47
2018-07-07T12:59:32.954Z,2.77
2018-07-07T13:02:01.677Z,3.67
2018-07-07T13:04:30.176Z,2.75
2018-07-07T13:06:58.773Z,2.75
2018-07-07T13:09:27.229Z,3.87
2018-07-07T13:11:56.721Z,2.83
2018-07-07T13:14:25.211Z,2.60
2018-07-07T13:16:53.695Z,2.17
2018-07-07T13:19:22.153Z,2.17
2018-07-07T13:21:50.723Z,2.60
2018-07-07T13:24:19.222Z,4.12
2018-07-07T13:26:47.783Z,4.92
2018-07-07T13:29:16.186Z,2.63
2018-07-07T13:31:44.721Z,4.40
2018-07-07T13:34:13.260Z,4.83
2018-07-07T13:36:41.732Z,2.72
2018-07-07T13:39:11.734Z,6.78
2018-07-07T13:41:40.317Z,5.03
2018-07-07T13:44:08.793Z,2.87
2018-07-07T13:46:37.295Z,4.45
2018-07-07T13:49:06.020Z,3.00
2018-07-07T13:51:34.910Z,2.80
2018-07-07T13:54:03.411Z,3.37
2018-07-07T13:56:32.108Z,2.92
2018-07-07T13:59:00.561Z,6.83
2018-07-07T14:01:29.041Z,2.80
2018-07-07T14:03:57.518Z,3.65
2018-07-07T14:06:26.828Z,2.87
2018-07-07T14:08:55.520Z,3.08
2018-07-07T14:11:24.063Z,4.22
2018-07-07T14:13:52.869Z,3.50
2018-07-07T14:16:21.455Z,3.03
2018-07-07T14:18:50.186Z,3.00
2018-07-07T14:21:18.670Z,6.70
2018-07-07T14:23:47.100Z,3.95
2018-07-07T14:26:15.909Z,3.65
2018-07-07T14:28:44.518Z,3.63
2018-07-07T14:31:13.356Z,3.22
2018-07-07T14:33:41.898Z,3.87
2018-07-07T14:36:10.368Z,7.53
2018-07-07T14:38:39.012Z,4.47
2018-07-07T14:41:16.629Z,3.52
2018-07-07T14:43:57.400Z,4.08
2018-07-07T14:46:26.433Z,5.17
2018-07-07T14:48:54.568Z,7.47
2018-07-07T14:51:23.958Z,3.92
2018-07-07T14:53:52.466Z,3.70
2018-07-07T14:56:23.288Z,3.02
2018-07-07T14:58:52.396Z,3.30
2018-07-07T15:01:20.893Z,6.97
2018-07-07T15:03:49.421Z,3.80
2018-07-07T15:06:17.906Z,3.17
2018-07-07T15:08:46.398Z,3.92
2018-07-07T15:11:14.923Z,4.83
2018-07-07T15:13:43.569Z,3.40
2018-07-07T15:16:12.116Z,4.57
2018-07-07T15:18:40.634Z,6.87
2018-07-07T15:21:09.106Z,5.33
2018-07-07T15:23:37.735Z,5.03
2018-07-07T15:26:06.355Z,4.60
2018-07-07T15:28:34.552Z,3.03
2018-07-07T15:31:03.356Z,3.80
2018-07-07T15:33:31.901Z,6.97
2018-07-07T15:36:00.393Z,4.13
2018-07-07T15:38:29.068Z,3.73
2018-07-07T15:40:57.658Z,3.93
2018-07-07T15:43:26.062Z,4.28
2018-07-07T15:45:54.782Z,3.83
2018-07-07T15:48:23.268Z,3.50
2018-07-07T15:50:51.779Z,4.20
2018-07-07T15:53:20.963Z,4.10
2018-07-07T15:55:49.553Z,3.60
2018-07-07T15:58:18.206Z,3.90
2018-07-07T16:00:46.779Z,6.90
2018-07-07T16:03:15.199Z,3.77
2018-07-07T16:05:43.693Z,4.10
2018-07-07T16:08:12.186Z,3.93
2018-07-07T16:10:40.648Z,3.80
2018-07-07T16:13:09.978Z,3.60
2018-07-07T16:15:38.458Z,4.17
2018-07-07T16:18:07.373Z,3.77
2018-07-07T16:20:35.950Z,3.90
2018-07-07T16:23:04.553Z,3.93
2018-07-07T16:25:33.186Z,4.40
2018-07-07T16:28:01.699Z,3.20
2018-07-07T16:30:30.188Z,4.37
2018-07-07T16:32:58.691Z,3.43
2018-07-07T16:35:27.197Z,3.80
2018-07-07T16:37:55.694Z,3.40
2018-07-07T16:40:24.175Z,4.70
2018-07-07T16:42:52.706Z,3.83
2018-07-07T16:45:21.248Z,4.53
2018-07-07T16:47:50.022Z,3.67
2018-07-07T16:50:18.684Z,4.10
2018-07-07T16:52:47.348Z,4.03
2018-07-07T16:55:16.115Z,6.67
2018-07-07T16:57:44.649Z,3.60
2018-07-07T17:00:13.568Z,6.73
2018-07-07T17:02:42.656Z,3.33
2018-07-07T17:05:11.162Z,6.50
2018-07-07T17:07:39.704Z,10.03
2018-07-07T17:10:08.631Z,7.70
2018-07-07T17:12:37.313Z,8.33
2018-07-07T17:15:06.511Z,12.17
2018-07-07T17:17:35.076Z,6.23
2018-07-07T17:20:04.114Z,5.07
2018-07-07T17:22:32.661Z,4.23
2018-07-07T17:25:01.206Z,3.97
2018-07-07T17:27:30.037Z,4.53
2018-07-07T17:29:59.693Z,4.10
2018-07-07T17:32:28.394Z,5.13
2018-07-07T17:34:57.100Z,4.60
2018-07-07T17:37:25.684Z,5.10
2018-07-07T17:39:54.222Z,4.23
2018-07-07T17:42:22.832Z,5.10
2018-07-07T17:44:52.314Z,4.10
2018-07-07T17:47:21.063Z,4.60
2018-07-07T17:49:49.627Z,4.27
2018-07-07T17:52:18.286Z,4.93
2018-07-07T17:54:48.458Z,5.53
2018-07-07T17:57:17.043Z,4.97
2018-07-07T17:59:45.600Z,4.37
2018-07-07T18:02:14.152Z,7.73
2018-07-07T18:04:42.666Z,5.67
2018-07-07T18:07:11.141Z,5.47
2018-07-07T18:09:39.784Z,4.90
2018-07-07T18:12:08.472Z,4.67
2018-07-07T18:14:37.064Z,4.70
2018-07-07T18:17:05.987Z,5.20
2018-07-07T18:19:34.948Z,4.70
2018-07-07T18:22:03.596Z,4.87
2018-07-07T18:24:32.101Z,5.90
2018-07-07T18:27:01.571Z,4.13
2018-07-07T18:29:30.245Z,4.00
2018-07-07T18:31:58.831Z,4.97
2018-07-07T18:34:27.781Z,4.97
2018-07-07T18:36:56.467Z,4.60
2018-07-07T18:39:25.096Z,4.30
2018-07-07T18:41:53.733Z,4.00
2018-07-07T18:44:22.231Z,8.60
2018-07-07T18:46:50.685Z,4.50
2018-07-07T18:49:19.254Z,4.17
2018-07-07T18:51:47.995Z,4.10
2018-07-07T18:54:16.430Z,4.10
2018-07-07T18:56:45.851Z,4.23
2018-07-07T18:59:14.499Z,4.70
2018-07-07T19:01:43.382Z,4.20
2018-07-07T19:04:12.992Z,3.30
2018-07-07T19:06:41.429Z,3.53
2018-07-07T19:09:10.092Z,4.03
2018-07-07T19:11:38.801Z,3.93
2018-07-07T19:14:07.618Z,6.13
2018-07-07T19:16:36.254Z,3.90
2018-07-07T19:19:05.135Z,4.53
2018-07-07T19:21:38.984Z,4.73
2018-07-07T19:24:12.974Z,4.00
2018-07-07T19:26:56.299Z,4.03
2018-07-07T19:29:24.814Z,3.63
2018-07-07T19:31:58.874Z,3.60
2018-07-07T19:34:32.640Z,4.33
2018-07-07T19:37:06.646Z,11.13
2018-07-07T19:39:35.392Z,3.30
2018-07-07T19:42:04.996Z,5.60
2018-07-07T19:44:33.651Z,3.87
2018-07-07T19:47:03.770Z,5.33
2018-07-07T19:49:32.932Z,7.33
2018-07-07T19:52:01.417Z,3.20
2018-07-07T19:54:29.985Z,3.63
2018-07-07T19:56:58.574Z,4.00
2018-07-07T19:59:27.288Z,7.10
2018-07-07T20:01:55.722Z,3.53
2018-07-07T20:04:24.563Z,4.60
2018-07-07T20:06:53.328Z,7.40
2018-07-07T20:09:21.860Z,3.70
2018-07-07T20:11:50.336Z,3.73
2018-07-07T20:14:20.929Z,3.77
2018-07-07T20:17:15.557Z,3.43
2018-07-07T20:21:04.508Z,3.30
2018-07-07T20:23:33.292Z,3.70
2018-07-07T20:26:03.119Z,3.37
2018-07-07T20:28:36.816Z,4.00
2018-07-07T20:31:05.405Z,4.73
2018-07-07T20:33:34.077Z,3.93
2018-07-07T20:36:03.016Z,4.73
2018-07-07T20:38:32.789Z,3.10
2018-07-07T20:41:01.403Z,3.43
2018-07-07T20:43:29.930Z,4.23
2018-07-07T20:45:58.607Z,4.97
2018-07-07T20:48:27.263Z,3.53
2018-07-07T20:50:56.070Z,3.30
2018-07-07T20:53:24.800Z,3.70
2018-07-07T20:55:53.336Z,8.03
2018-07-07T20:58:22.161Z,3.47
2018-07-07T21:00:50.690Z,3.47
2018-07-07T21:03:19.354Z,9.57
2018-07-07T21:05:47.907Z,3.70
2018-07-07T21:08:16.494Z,6.97
2018-07-07T21:10:45.045Z,3.37
2018-07-07T21:13:13.519Z,2.93
2018-07-07T21:15:41.994Z,4.43
2018-07-07T21:18:11.031Z,3.63
2018-07-07T21:20:39.532Z,7.93
2018-07-07T21:23:09.103Z,5.03
2018-07-07T21:25:37.629Z,2.73
2018-07-07T21:28:06.121Z,8.53
2018-07-07T21:30:34.649Z,3.40
2018-07-07T21:33:02.769Z,6.83
2018-07-07T21:35:31.201Z,3.77
2018-07-07T21:37:59.333Z,3.33
2018-07-07T21:40:28.071Z,4.80
2018-07-07T21:42:56.640Z,3.57
2018-07-07T21:45:25.272Z,3.70
2018-07-07T21:47:53.696Z,4.33
2018-07-07T21:50:22.406Z,6.70
2018-07-07T21:52:50.787Z,3.10
2018-07-07T21:55:18.903Z,6.50
2018-07-07T21:57:52.788Z,4.60
2018-07-07T22:00:26.574Z,3.23
2018-07-07T22:03:00.431Z,2.80
2018-07-07T22:05:32.620Z,7.90
2018-07-07T22:08:05.706Z,4.77
2018-07-07T22:10:34.617Z,3.50
2018-07-07T22:13:03.092Z,3.73
2018-07-07T22:15:31.610Z,6.40
2018-07-07T22:18:00.050Z,5.13
2018-07-07T22:20:33.537Z,4.50
2018-07-07T22:23:02.001Z,4.97
2018-07-07T22:25:30.485Z,6.03
2018-07-07T22:27:58.995Z,5.20
2018-07-07T22:30:27.668Z,4.40
2018-07-07T22:33:01.627Z,5.07
2018-07-07T22:35:36.213Z,3.50
2018-07-07T22:38:08.939Z,3.00
2018-07-07T22:40:37.596Z,3.17
2018-07-07T22:43:06.130Z,2.70
2018-07-07T22:45:34.633Z,2.20
2018-07-07T22:48:03.136Z,10.27
2018-07-07T22:50:31.865Z,2.60
2018-07-07T22:53:00.551Z,2.73
2018-07-07T22:55:29.159Z,9.40
2018-07-07T22:57:57.616Z,2.40
2018-07-07T23:00:31.949Z,3.00
2018-07-07T23:03:01.203Z,2.40
2018-07-07T23:05:29.669Z,4.60
2018-07-07T23:07:58.206Z,3.27
2018-07-07T23:10:26.684Z,3.30
2018-07-07T23:12:55.161Z,6.33
2018-07-07T23:15:23.655Z,4.37
2018-07-07T23:17:52.069Z,7.57
2018-07-07T23:20:20.597Z,4.00
2018-07-07T23:22:51.701Z,3.13
2018-07-07T23:25:20.503Z,2.80
2018-07-07T23:27:50.032Z,3.70
2018-07-07T23:30:19.837Z,3.93
2018-07-07T23:32:48.761Z,4.20
2018-07-07T23:35:17.507Z,3.63
2018-07-07T23:37:45.988Z,3.20
2018-07-07T23:40:14.479Z,5.07
2018-07-07T23:42:43.017Z,2.83
2018-07-07T23:45:12.251Z,3.17
2018-07-07T23:47:40.742Z,3.43
2018-07-07T23:50:10.133Z,4.07
2018-07-07T23:52:38.651Z,5.67
2018-07-07T23:55:07.992Z,7.07
2018-07-07T23:57:36.810Z,2.97
